sensor_id;sensor_type;location;lat;lon;timestamp;temperature;humidity
13992;DHT22;7070;53.586;9.692;2024-01-16T00:00:31;0.60;91.90
13992;DHT22;7070;53.586;9.692;2024-01-16T00:02:59;0.70;92.20
13992;DHT22;7070;53.586;9.692;2024-01-16T00:05:26;0.70;91.90
13992;DHT22;7070;53.586;9.692;2024-01-16T00:07:52;0.70;91.90
13992;DHT22;7070;53.586;9.692;2024-01-16T00:10:19;0.70;91.90
13992;DHT22;7070;53.586;9.692;2024-01-16T00:12:46;0.70;91.90
13992;DHT22;7070;53.586;9.692;2024-01-16T00:15:13;0.60;91.90
13992;DHT22;7070;53.586;9.692;2024-01-16T00:17:40;0.70;91.90
13992;DHT22;7070;53.586;9.692;2024-01-16T00:20:10;0.70;91.90
13992;DHT22;7070;53.586;9.692;2024-01-16T00:22:37;0.70;91.90
13992;DHT22;7070;53.586;9.692;2024-01-16T00:25:04;0.60;91.90
13992;DHT22;7070;53.586;9.692;2024-01-16T00:27:31;0.70;91.90
13992;DHT22;7070;53.586;9.692;2024-01-16T00:29:58;0.70;92.20
13992;DHT22;7070;53.586;9.692;2024-01-16T00:32:25;0.70;92.00
13992;DHT22;7070;53.586;9.692;2024-01-16T00:34:52;0.80;92.00
13992;DHT22;7070;53.586;9.692;2024-01-16T00:37:20;0.70;91.90
13992;DHT22;7070;53.586;9.692;2024-01-16T00:39:47;0.80;92.00
13992;DHT22;7070;53.586;9.692;2024-01-16T00:42:14;0.80;92.00
13992;DHT22;7070;53.586;9.692;2024-01-16T00:44:41;0.80;92.00
13992;DHT22;7070;53.586;9.692;2024-01-16T00:47:08;0.80;92.00
13992;DHT22;7070;53.586;9.692;2024-01-16T00:49:35;0.80;91.90
13992;DHT22;7070;53.586;9.692;2024-01-16T00:52:03;0.90;92.00
13992;DHT22;7070;53.586;9.692;2024-01-16T00:54:31;0.90;92.00
13992;DHT22;7070;53.586;9.692;2024-01-16T00:56:58;0.90;92.00
13992;DHT22;7070;53.586;9.692;2024-01-16T00:59:25;0.90;91.90
13992;DHT22;7070;53.586;9.692;2024-01-16T01:01:52;0.90;92.00
13992;DHT22;7070;53.586;9.692;2024-01-16T01:04:19;1.00;91.90
13992;DHT22;7070;53.586;9.692;2024-01-16T01:06:46;1.00;91.90
13992;DHT22;7070;53.586;9.692;2024-01-16T01:09:13;1.00;91.80
13992;DHT22;7070;53.586;9.692;2024-01-16T01:11:42;1.00;91.80
13992;DHT22;7070;53.586;9.692;2024-01-16T01:14:09;1.00;91.80
13992;DHT22;7070;53.586;9.692;2024-01-16T01:16:35;1.00;91.70
13992;DHT22;7070;53.586;9.692;2024-01-16T01:19:02;1.00;91.80
13992;DHT22;7070;53.586;9.692;2024-01-16T01:21:29;0.90;91.80
13992;DHT22;7070;53.586;9.692;2024-01-16T01:23:56;1.00;91.80
13992;DHT22;7070;53.586;9.692;2024-01-16T01:26:23;1.00;91.80
13992;DHT22;7070;53.586;9.692;2024-01-16T01:28:51;0.90;91.80
13992;DHT22;7070;53.586;9.692;2024-01-16T01:31:19;0.90;91.90
13992;DHT22;7070;53.586;9.692;2024-01-16T01:33:45;1.00;91.90
13992;DHT22;7070;53.586;9.692;2024-01-16T01:36:13;0.90;91.90
13992;DHT22;7070;53.586;9.692;2024-01-16T01:38:40;1.00;91.90
13992;DHT22;7070;53.586;9.692;2024-01-16T01:41:06;1.00;91.90
13992;DHT22;7070;53.586;9.692;2024-01-16T01:43:34;1.10;91.90
13992;DHT22;7070;53.586;9.692;2024-01-16T01:46:09;1.10;92.00
13992;DHT22;7070;53.586;9.692;2024-01-16T01:48:45;1.10;92.00
13992;DHT22;7070;53.586;9.692;2024-01-16T01:51:14;1.10;92.00
13992;DHT22;7070;53.586;9.692;2024-01-16T01:53:44;1.10;92.10
13992;DHT22;7070;53.586;9.692;2024-01-16T01:56:13;1.10;92.00
13992;DHT22;7070;53.586;9.692;2024-01-16T01:58:43;1.10;92.00
13992;DHT22;7070;53.586;9.692;2024-01-16T02:01:12;1.10;92.00
13992;DHT22;7070;53.586;9.692;2024-01-16T02:03:43;1.20;91.90
13992;DHT22;7070;53.586;9.692;2024-01-16T02:06:10;1.10;92.00
13992;DHT22;7070;53.586;9.692;2024-01-16T02:08:37;1.20;92.00
13992;DHT22;7070;53.586;9.692;2024-01-16T02:11:05;1.20;92.00
13992;DHT22;7070;53.586;9.692;2024-01-16T02:13:32;1.20;91.90
13992;DHT22;7070;53.586;9.692;2024-01-16T02:15:59;1.20;91.90
13992;DHT22;7070;53.586;9.692;2024-01-16T02:18:27;1.20;91.90
13992;DHT22;7070;53.586;9.692;2024-01-16T02:20:59;1.10;91.80
13992;DHT22;7070;53.586;9.692;2024-01-16T02:23:29;1.20;91.80
13992;DHT22;7070;53.586;9.692;2024-01-16T02:25:56;1.10;91.80
13992;DHT22;7070;53.586;9.692;2024-01-16T02:28:23;1.10;91.60
13992;DHT22;7070;53.586;9.692;2024-01-16T02:30:50;1.10;91.70
13992;DHT22;7070;53.586;9.692;2024-01-16T02:33:17;1.10;91.80
13992;DHT22;7070;53.586;9.692;2024-01-16T02:35:44;1.10;92.10
13992;DHT22;7070;53.586;9.692;2024-01-16T02:38:11;1.10;91.70
13992;DHT22;7070;53.586;9.692;2024-01-16T02:40:39;1.00;91.70
13992;DHT22;7070;53.586;9.692;2024-01-16T02:43:07;1.00;91.70
13992;DHT22;7070;53.586;9.692;2024-01-16T02:45:33;0.90;91.50
13992;DHT22;7070;53.586;9.692;2024-01-16T02:48:01;0.90;91.40
13992;DHT22;7070;53.586;9.692;2024-01-16T02:50:29;0.80;91.40
13992;DHT22;7070;53.586;9.692;2024-01-16T02:52:55;0.80;91.30
13992;DHT22;7070;53.586;9.692;2024-01-16T02:55:22;0.70;91.20
13992;DHT22;7070;53.586;9.692;2024-01-16T02:57:50;0.60;91.10
13992;DHT22;7070;53.586;9.692;2024-01-16T03:00:17;0.50;91.10
13992;DHT22;7070;53.586;9.692;2024-01-16T03:02:44;0.30;91.00
13992;DHT22;7070;53.586;9.692;2024-01-16T03:05:11;0.30;91.10
13992;DHT22;7070;53.586;9.692;2024-01-16T03:07:38;0.20;91.20
13992;DHT22;7070;53.586;9.692;2024-01-16T03:10:06;0.20;91.20
13992;DHT22;7070;53.586;9.692;2024-01-16T03:12:33;0.10;91.20
13992;DHT22;7070;53.586;9.692;2024-01-16T03:15:02;0.00;91.00
13992;DHT22;7070;53.586;9.692;2024-01-16T03:17:29;-0.10;90.80
13992;DHT22;7070;53.586;9.692;2024-01-16T03:19:56;-0.20;90.90
13992;DHT22;7070;53.586;9.692;2024-01-16T03:22:23;-0.20;91.10
13992;DHT22;7070;53.586;9.692;2024-01-16T03:24:50;-0.20;91.30
13992;DHT22;7070;53.586;9.692;2024-01-16T03:27:17;-0.30;91.40
13992;DHT22;7070;53.586;9.692;2024-01-16T03:29:44;-0.30;91.40
13992;DHT22;7070;53.586;9.692;2024-01-16T03:32:13;-0.40;91.30
13992;DHT22;7070;53.586;9.692;2024-01-16T03:34:40;-0.40;91.30
13992;DHT22;7070;53.586;9.692;2024-01-16T03:37:06;-0.50;91.10
13992;DHT22;7070;53.586;9.692;2024-01-16T03:39:34;-0.60;91.00
13992;DHT22;7070;53.586;9.692;2024-01-16T03:42:01;-0.70;91.00
13992;DHT22;7070;53.586;9.692;2024-01-16T03:44:28;-0.70;91.10
13992;DHT22;7070;53.586;9.692;2024-01-16T03:46:55;-0.80;90.80
13992;DHT22;7070;53.586;9.692;2024-01-16T03:49:23;-0.90;90.70
13992;DHT22;7070;53.586;9.692;2024-01-16T03:51:51;-1.00;90.40
13992;DHT22;7070;53.586;9.692;2024-01-16T03:54:18;-1.10;90.40
13992;DHT22;7070;53.586;9.692;2024-01-16T03:56:45;-1.30;90.30
13992;DHT22;7070;53.586;9.692;2024-01-16T03:59:12;-1.40;90.20
13992;DHT22;7070;53.586;9.692;2024-01-16T04:01:39;-1.50;90.20
13992;DHT22;7070;53.586;9.692;2024-01-16T04:04:07;-1.50;90.20
13992;DHT22;7070;53.586;9.692;2024-01-16T04:06:35;-1.60;90.20
13992;DHT22;7070;53.586;9.692;2024-01-16T04:09:02;-1.70;90.30
13992;DHT22;7070;53.586;9.692;2024-01-16T04:11:30;-1.70;90.30
13992;DHT22;7070;53.586;9.692;2024-01-16T04:13:57;-1.80;90.30
13992;DHT22;7070;53.586;9.692;2024-01-16T04:16:24;-1.80;90.30
13992;DHT22;7070;53.586;9.692;2024-01-16T04:18:50;-1.90;90.70
13992;DHT22;7070;53.586;9.692;2024-01-16T04:21:17;-1.90;90.40
13992;DHT22;7070;53.586;9.692;2024-01-16T04:23:46;-2.00;90.40
13992;DHT22;7070;53.586;9.692;2024-01-16T04:26:13;-2.00;90.50
13992;DHT22;7070;53.586;9.692;2024-01-16T04:28:39;-2.00;90.70
13992;DHT22;7070;53.586;9.692;2024-01-16T04:31:08;-1.90;90.80
13992;DHT22;7070;53.586;9.692;2024-01-16T04:33:37;-2.00;90.90
13992;DHT22;7070;53.586;9.692;2024-01-16T04:36:04;-1.90;91.00
13992;DHT22;7070;53.586;9.692;2024-01-16T04:38:31;-1.80;91.20
13992;DHT22;7070;53.586;9.692;2024-01-16T04:41:02;-1.80;91.30
13992;DHT22;7070;53.586;9.692;2024-01-16T04:43:29;-1.70;91.40
13992;DHT22;7070;53.586;9.692;2024-01-16T04:45:56;-1.60;91.50
13992;DHT22;7070;53.586;9.692;2024-01-16T04:48:23;-1.50;91.50
13992;DHT22;7070;53.586;9.692;2024-01-16T04:50:50;-1.40;91.50
13992;DHT22;7070;53.586;9.692;2024-01-16T04:53:17;-1.30;91.50
13992;DHT22;7070;53.586;9.692;2024-01-16T04:55:44;-1.30;91.40
13992;DHT22;7070;53.586;9.692;2024-01-16T04:58:12;-1.20;91.40
13992;DHT22;7070;53.586;9.692;2024-01-16T05:00:39;-1.20;91.30
13992;DHT22;7070;53.586;9.692;2024-01-16T05:03:06;-1.20;91.50
13992;DHT22;7070;53.586;9.692;2024-01-16T05:05:33;-1.20;91.20
13992;DHT22;7070;53.586;9.692;2024-01-16T05:08:01;-1.10;91.30
13992;DHT22;7070;53.586;9.692;2024-01-16T05:10:28;-1.20;91.20
13992;DHT22;7070;53.586;9.692;2024-01-16T05:12:56;-1.10;91.30
13992;DHT22;7070;53.586;9.692;2024-01-16T05:15:24;-1.00;91.50
13992;DHT22;7070;53.586;9.692;2024-01-16T05:17:51;-1.00;91.50
13992;DHT22;7070;53.586;9.692;2024-01-16T05:20:19;-0.90;91.50
13992;DHT22;7070;53.586;9.692;2024-01-16T05:22:46;-0.80;91.60
13992;DHT22;7070;53.586;9.692;2024-01-16T05:25:13;-0.80;91.60
13992;DHT22;7070;53.586;9.692;2024-01-16T05:27:42;-0.70;91.70
13992;DHT22;7070;53.586;9.692;2024-01-16T05:30:10;-0.60;91.70
13992;DHT22;7070;53.586;9.692;2024-01-16T05:32:38;-0.60;91.70
13992;DHT22;7070;53.586;9.692;2024-01-16T05:35:07;-0.50;91.80
13992;DHT22;7070;53.586;9.692;2024-01-16T05:37:35;-0.40;91.80
13992;DHT22;7070;53.586;9.692;2024-01-16T05:40:02;-0.40;92.10
13992;DHT22;7070;53.586;9.692;2024-01-16T05:42:29;-0.20;91.90
13992;DHT22;7070;53.586;9.692;2024-01-16T05:44:56;-0.20;91.80
13992;DHT22;7070;53.586;9.692;2024-01-16T05:47:23;-0.10;91.80
13992;DHT22;7070;53.586;9.692;2024-01-16T05:49:54;0.00;91.80
13992;DHT22;7070;53.586;9.692;2024-01-16T05:52:21;0.00;91.70
13992;DHT22;7070;53.586;9.692;2024-01-16T05:54:48;0.00;91.60
13992;DHT22;7070;53.586;9.692;2024-01-16T05:57:15;-0.10;91.40
13992;DHT22;7070;53.586;9.692;2024-01-16T05:59:42;-0.10;91.40
13992;DHT22;7070;53.586;9.692;2024-01-16T06:02:09;-0.10;91.40
13992;DHT22;7070;53.586;9.692;2024-01-16T06:07:05;-0.20;91.30
13992;DHT22;7070;53.586;9.692;2024-01-16T06:09:33;-0.10;91.50
13992;DHT22;7070;53.586;9.692;2024-01-16T06:12:00;-0.10;91.70
13992;DHT22;7070;53.586;9.692;2024-01-16T06:14:29;0.00;91.70
13992;DHT22;7070;53.586;9.692;2024-01-16T06:16:56;0.00;91.80
13992;DHT22;7070;53.586;9.692;2024-01-16T06:19:22;0.10;91.80
13992;DHT22;7070;53.586;9.692;2024-01-16T06:21:49;0.10;91.80
13992;DHT22;7070;53.586;9.692;2024-01-16T06:24:17;0.20;91.90
13992;DHT22;7070;53.586;9.692;2024-01-16T06:26:47;0.30;91.90
13992;DHT22;7070;53.586;9.692;2024-01-16T06:29:14;0.30;92.00
13992;DHT22;7070;53.586;9.692;2024-01-16T06:31:41;0.30;91.90
13992;DHT22;7070;53.586;9.692;2024-01-16T06:34:08;0.30;91.90
13992;DHT22;7070;53.586;9.692;2024-01-16T06:36:35;0.40;92.00
13992;DHT22;7070;53.586;9.692;2024-01-16T06:39:02;0.50;92.00
13992;DHT22;7070;53.586;9.692;2024-01-16T06:41:30;0.50;92.00
13992;DHT22;7070;53.586;9.692;2024-01-16T06:43:57;0.50;92.00
13992;DHT22;7070;53.586;9.692;2024-01-16T06:46:24;0.70;92.00
13992;DHT22;7070;53.586;9.692;2024-01-16T06:48:52;0.70;92.00
13992;DHT22;7070;53.586;9.692;2024-01-16T06:51:18;0.80;92.00
13992;DHT22;7070;53.586;9.692;2024-01-16T06:53:45;0.80;92.00
13992;DHT22;7070;53.586;9.692;2024-01-16T06:56:12;0.90;91.90
13992;DHT22;7070;53.586;9.692;2024-01-16T06:58:40;0.90;92.00
13992;DHT22;7070;53.586;9.692;2024-01-16T07:01:09;0.90;91.90
13992;DHT22;7070;53.586;9.692;2024-01-16T07:03:36;1.00;91.90
13992;DHT22;7070;53.586;9.692;2024-01-16T07:06:03;1.00;91.80
13992;DHT22;7070;53.586;9.692;2024-01-16T07:08:30;1.00;91.80
13992;DHT22;7070;53.586;9.692;2024-01-16T07:10:57;1.10;91.80
13992;DHT22;7070;53.586;9.692;2024-01-16T07:13:23;1.00;91.80
13992;DHT22;7070;53.586;9.692;2024-01-16T07:15:52;1.10;91.70
13992;DHT22;7070;53.586;9.692;2024-01-16T07:18:18;1.10;91.80
13992;DHT22;7070;53.586;9.692;2024-01-16T07:20:45;1.10;91.70
13992;DHT22;7070;53.586;9.692;2024-01-16T07:23:12;1.10;91.70
13992;DHT22;7070;53.586;9.692;2024-01-16T07:25:39;1.00;91.70
13992;DHT22;7070;53.586;9.692;2024-01-16T07:28:06;1.20;91.80
13992;DHT22;7070;53.586;9.692;2024-01-16T07:30:34;1.10;91.70
13992;DHT22;7070;53.586;9.692;2024-01-16T07:33:04;1.20;91.80
13992;DHT22;7070;53.586;9.692;2024-01-16T07:35:30;1.20;92.10
13992;DHT22;7070;53.586;9.692;2024-01-16T07:37:57;1.20;91.70
13992;DHT22;7070;53.586;9.692;2024-01-16T07:40:24;1.20;91.70
13992;DHT22;7070;53.586;9.692;2024-01-16T07:42:51;1.20;91.70
13992;DHT22;7070;53.586;9.692;2024-01-16T07:45:17;1.30;91.80
13992;DHT22;7070;53.586;9.692;2024-01-16T07:47:44;1.30;91.70
13992;DHT22;7070;53.586;9.692;2024-01-16T07:50:13;1.30;91.80
13992;DHT22;7070;53.586;9.692;2024-01-16T07:52:40;1.30;91.70
13992;DHT22;7070;53.586;9.692;2024-01-16T07:55:07;1.30;91.70
13992;DHT22;7070;53.586;9.692;2024-01-16T07:57:34;1.30;91.70
13992;DHT22;7070;53.586;9.692;2024-01-16T08:00:01;1.30;91.70
13992;DHT22;7070;53.586;9.692;2024-01-16T08:02:32;1.40;91.80
13992;DHT22;7070;53.586;9.692;2024-01-16T08:04:59;1.40;91.90
13992;DHT22;7070;53.586;9.692;2024-01-16T08:07:28;1.50;91.80
13992;DHT22;7070;53.586;9.692;2024-01-16T08:09:56;1.40;91.80
13992;DHT22;7070;53.586;9.692;2024-01-16T08:12:25;1.50;91.90
13992;DHT22;7070;53.586;9.692;2024-01-16T08:14:52;1.50;91.80
13992;DHT22;7070;53.586;9.692;2024-01-16T08:17:19;1.60;91.90
13992;DHT22;7070;53.586;9.692;2024-01-16T08:19:45;1.50;91.80
13992;DHT22;7070;53.586;9.692;2024-01-16T08:22:12;1.60;91.80
13992;DHT22;7070;53.586;9.692;2024-01-16T08:24:40;1.70;92.00
13992;DHT22;7070;53.586;9.692;2024-01-16T08:27:08;1.70;91.90
13992;DHT22;7070;53.586;9.692;2024-01-16T08:29:34;1.70;91.90
13992;DHT22;7070;53.586;9.692;2024-01-16T08:32:01;1.70;92.00
13992;DHT22;7070;53.586;9.692;2024-01-16T08:34:28;1.80;91.90
13992;DHT22;7070;53.586;9.692;2024-01-16T08:36:55;1.80;91.80
13992;DHT22;7070;53.586;9.692;2024-01-16T08:39:25;1.80;92.00
13992;DHT22;7070;53.586;9.692;2024-01-16T08:41:54;1.80;91.90
13992;DHT22;7070;53.586;9.692;2024-01-16T08:44:23;1.90;92.00
13992;DHT22;7070;53.586;9.692;2024-01-16T08:46:50;1.90;92.00
13992;DHT22;7070;53.586;9.692;2024-01-16T08:49:16;2.00;91.90
13992;DHT22;7070;53.586;9.692;2024-01-16T08:51:43;1.90;91.90
13992;DHT22;7070;53.586;9.692;2024-01-16T08:54:10;2.10;92.30
13992;DHT22;7070;53.586;9.692;2024-01-16T08:56:37;2.10;91.90
13992;DHT22;7070;53.586;9.692;2024-01-16T08:59:05;2.20;92.00
13992;DHT22;7070;53.586;9.692;2024-01-16T09:01:32;2.20;92.00
13992;DHT22;7070;53.586;9.692;2024-01-16T09:03:59;2.20;92.00
13992;DHT22;7070;53.586;9.692;2024-01-16T09:06:26;2.30;91.90
13992;DHT22;7070;53.586;9.692;2024-01-16T09:08:53;2.30;92.00
13992;DHT22;7070;53.586;9.692;2024-01-16T09:11:19;2.40;92.00
13992;DHT22;7070;53.586;9.692;2024-01-16T09:13:47;2.40;91.90
13992;DHT22;7070;53.586;9.692;2024-01-16T09:16:15;2.50;91.90
13992;DHT22;7070;53.586;9.692;2024-01-16T09:18:42;2.40;91.90
13992;DHT22;7070;53.586;9.692;2024-01-16T09:21:09;2.60;91.90
13992;DHT22;7070;53.586;9.692;2024-01-16T09:23:36;2.60;91.90
13992;DHT22;7070;53.586;9.692;2024-01-16T09:26:03;2.50;91.90
13992;DHT22;7070;53.586;9.692;2024-01-16T09:28:30;2.60;91.90
13992;DHT22;7070;53.586;9.692;2024-01-16T09:30:57;2.70;91.90
13992;DHT22;7070;53.586;9.692;2024-01-16T09:33:25;2.70;91.90
13992;DHT22;7070;53.586;9.692;2024-01-16T09:35:52;2.70;91.90
13992;DHT22;7070;53.586;9.692;2024-01-16T09:38:19;2.70;91.90
13992;DHT22;7070;53.586;9.692;2024-01-16T09:40:46;2.70;91.80
13992;DHT22;7070;53.586;9.692;2024-01-16T09:43:13;2.80;91.90
13992;DHT22;7070;53.586;9.692;2024-01-16T09:45:40;2.80;91.90
13992;DHT22;7070;53.586;9.692;2024-01-16T09:48:07;2.80;91.80
13992;DHT22;7070;53.586;9.692;2024-01-16T09:50:36;2.80;91.70
13992;DHT22;7070;53.586;9.692;2024-01-16T09:53:03;2.80;91.80
13992;DHT22;7070;53.586;9.692;2024-01-16T09:55:30;2.80;91.80
13992;DHT22;7070;53.586;9.692;2024-01-16T09:57:57;2.90;92.00
13992;DHT22;7070;53.586;9.692;2024-01-16T10:00:24;2.90;92.10
13992;DHT22;7070;53.586;9.692;2024-01-16T10:02:53;2.90;92.20
13992;DHT22;7070;53.586;9.692;2024-01-16T10:05:24;3.10;92.10
13992;DHT22;7070;53.586;9.692;2024-01-16T10:07:52;3.10;92.30
13992;DHT22;7070;53.586;9.692;2024-01-16T10:10:19;3.20;92.00
13992;DHT22;7070;53.586;9.692;2024-01-16T10:12:48;3.20;92.10
13992;DHT22;7070;53.586;9.692;2024-01-16T10:15:16;3.30;92.10
13992;DHT22;7070;53.586;9.692;2024-01-16T10:17:43;3.40;92.20
13992;DHT22;7070;53.586;9.692;2024-01-16T10:20:11;3.30;92.00
13992;DHT22;7070;53.586;9.692;2024-01-16T10:22:39;3.40;92.10
13992;DHT22;7070;53.586;9.692;2024-01-16T10:25:09;3.50;92.00
13992;DHT22;7070;53.586;9.692;2024-01-16T10:27:38;3.50;92.10
13992;DHT22;7070;53.586;9.692;2024-01-16T10:30:06;3.50;92.00
13992;DHT22;7070;53.586;9.692;2024-01-16T10:32:35;3.60;92.00
13992;DHT22;7070;53.586;9.692;2024-01-16T10:35:07;3.50;92.00
13992;DHT22;7070;53.586;9.692;2024-01-16T10:37:42;3.60;92.00
13992;DHT22;7070;53.586;9.692;2024-01-16T10:40:15;3.50;92.00
13992;DHT22;7070;53.586;9.692;2024-01-16T10:42:44;3.50;92.10
13992;DHT22;7070;53.586;9.692;2024-01-16T10:45:17;3.60;92.10
13992;DHT22;7070;53.586;9.692;2024-01-16T10:47:46;3.60;92.20
13992;DHT22;7070;53.586;9.692;2024-01-16T10:50:13;3.60;92.20
13992;DHT22;7070;53.586;9.692;2024-01-16T10:52:47;3.70;92.20
13992;DHT22;7070;53.586;9.692;2024-01-16T10:55:21;3.70;92.30
13992;DHT22;7070;53.586;9.692;2024-01-16T10:57:49;3.80;92.30
13992;DHT22;7070;53.586;9.692;2024-01-16T11:00:18;3.80;92.20
13992;DHT22;7070;53.586;9.692;2024-01-16T11:02:50;3.90;92.30
13992;DHT22;7070;53.586;9.692;2024-01-16T11:05:18;3.90;92.30
13992;DHT22;7070;53.586;9.692;2024-01-16T11:07:47;4.00;92.40
13992;DHT22;7070;53.586;9.692;2024-01-16T11:10:14;4.00;92.40
13992;DHT22;7070;53.586;9.692;2024-01-16T11:12:43;4.10;92.40
13992;DHT22;7070;53.586;9.692;2024-01-16T11:15:12;4.10;92.30
13992;DHT22;7070;53.586;9.692;2024-01-16T11:17:40;4.20;92.20
13992;DHT22;7070;53.586;9.692;2024-01-16T11:20:11;4.20;92.30
13992;DHT22;7070;53.586;9.692;2024-01-16T11:22:41;4.20;92.20
13992;DHT22;7070;53.586;9.692;2024-01-16T11:25:09;4.30;92.30
13992;DHT22;7070;53.586;9.692;2024-01-16T11:27:37;4.30;92.20
13992;DHT22;7070;53.586;9.692;2024-01-16T11:30:07;4.30;92.10
13992;DHT22;7070;53.586;9.692;2024-01-16T11:32:35;4.40;92.10
13992;DHT22;7070;53.586;9.692;2024-01-16T11:35:03;4.30;92.10
13992;DHT22;7070;53.586;9.692;2024-01-16T11:37:30;4.40;92.30
13992;DHT22;7070;53.586;9.692;2024-01-16T11:40:23;4.40;92.30
13992;DHT22;7070;53.586;9.692;2024-01-16T11:42:52;4.50;92.10
13992;DHT22;7070;53.586;9.692;2024-01-16T11:45:49;4.50;92.20
13992;DHT22;7070;53.586;9.692;2024-01-16T11:48:17;4.50;91.80
13992;DHT22;7070;53.586;9.692;2024-01-16T11:50:44;4.60;92.10
13992;DHT22;7070;53.586;9.692;2024-01-16T11:53:15;4.60;92.20
13992;DHT22;7070;53.586;9.692;2024-01-16T11:56:13;4.60;92.40
13992;DHT22;7070;53.586;9.692;2024-01-16T11:58:48;4.80;92.50
13992;DHT22;7070;53.586;9.692;2024-01-16T12:01:17;4.80;92.60
13992;DHT22;7070;53.586;9.692;2024-01-16T12:03:45;5.00;92.60
13992;DHT22;7070;53.586;9.692;2024-01-16T12:06:16;5.00;92.50
13992;DHT22;7070;53.586;9.692;2024-01-16T12:08:43;5.20;92.40
13992;DHT22;7070;53.586;9.692;2024-01-16T12:11:10;5.20;92.30
13992;DHT22;7070;53.586;9.692;2024-01-16T12:13:36;5.30;92.30
13992;DHT22;7070;53.586;9.692;2024-01-16T12:16:04;5.30;92.10
13992;DHT22;7070;53.586;9.692;2024-01-16T12:18:32;5.30;92.00
13992;DHT22;7070;53.586;9.692;2024-01-16T12:21:08;5.30;91.80
13992;DHT22;7070;53.586;9.692;2024-01-16T12:23:35;5.30;91.80
13992;DHT22;7070;53.586;9.692;2024-01-16T12:26:03;5.20;91.60
13992;DHT22;7070;53.586;9.692;2024-01-16T12:28:29;5.10;91.60
13992;DHT22;7070;53.586;9.692;2024-01-16T12:30:56;5.20;91.80
13992;DHT22;7070;53.586;9.692;2024-01-16T12:33:23;5.20;91.90
13992;DHT22;7070;53.586;9.692;2024-01-16T12:36:00;5.20;91.90
13992;DHT22;7070;53.586;9.692;2024-01-16T12:38:28;5.10;92.10
13992;DHT22;7070;53.586;9.692;2024-01-16T12:40:55;5.20;92.20
13992;DHT22;7070;53.586;9.692;2024-01-16T12:43:22;5.10;92.10
13992;DHT22;7070;53.586;9.692;2024-01-16T12:45:55;5.10;92.10
13992;DHT22;7070;53.586;9.692;2024-01-16T12:48:22;5.20;92.10
13992;DHT22;7070;53.586;9.692;2024-01-16T12:50:51;5.10;92.10
13992;DHT22;7070;53.586;9.692;2024-01-16T12:53:24;5.10;92.10
13992;DHT22;7070;53.586;9.692;2024-01-16T12:55:58;5.10;92.10
13992;DHT22;7070;53.586;9.692;2024-01-16T12:58:28;5.00;92.20
13992;DHT22;7070;53.586;9.692;2024-01-16T13:01:23;5.10;92.20
13992;DHT22;7070;53.586;9.692;2024-01-16T13:03:51;5.10;92.00
13992;DHT22;7070;53.586;9.692;2024-01-16T13:06:20;5.00;92.00
13992;DHT22;7070;53.586;9.692;2024-01-16T13:08:47;5.00;92.00
13992;DHT22;7070;53.586;9.692;2024-01-16T13:11:15;5.00;91.90
13992;DHT22;7070;53.586;9.692;2024-01-16T13:13:46;4.90;91.90
13992;DHT22;7070;53.586;9.692;2024-01-16T13:16:15;4.80;92.00
13992;DHT22;7070;53.586;9.692;2024-01-16T13:18:42;4.90;92.10
13992;DHT22;7070;53.586;9.692;2024-01-16T13:21:09;4.80;92.10
13992;DHT22;7070;53.586;9.692;2024-01-16T13:23:38;4.70;92.00
13992;DHT22;7070;53.586;9.692;2024-01-16T13:26:04;4.70;92.00
13992;DHT22;7070;53.586;9.692;2024-01-16T13:28:32;4.60;91.90
13992;DHT22;7070;53.586;9.692;2024-01-16T13:30:59;4.60;91.80
13992;DHT22;7070;53.586;9.692;2024-01-16T13:33:26;4.60;92.00
13992;DHT22;7070;53.586;9.692;2024-01-16T13:35:53;4.50;91.90
13992;DHT22;7070;53.586;9.692;2024-01-16T13:38:21;4.50;92.00
13992;DHT22;7070;53.586;9.692;2024-01-16T13:40:49;4.50;92.10
13992;DHT22;7070;53.586;9.692;2024-01-16T13:43:16;4.50;92.20
13992;DHT22;7070;53.586;9.692;2024-01-16T13:45:44;4.40;92.10
13992;DHT22;7070;53.586;9.692;2024-01-16T13:48:15;4.40;92.10
13992;DHT22;7070;53.586;9.692;2024-01-16T13:50:41;4.40;92.10
13992;DHT22;7070;53.586;9.692;2024-01-16T13:53:10;4.30;92.10
13992;DHT22;7070;53.586;9.692;2024-01-16T13:55:38;4.30;92.10
13992;DHT22;7070;53.586;9.692;2024-01-16T13:58:07;4.30;92.10
13992;DHT22;7070;53.586;9.692;2024-01-16T14:00:34;4.20;92.00
13992;DHT22;7070;53.586;9.692;2024-01-16T14:03:01;4.20;92.00
13992;DHT22;7070;53.586;9.692;2024-01-16T14:05:29;4.10;92.00
13992;DHT22;7070;53.586;9.692;2024-01-16T14:07:57;4.10;92.00
13992;DHT22;7070;53.586;9.692;2024-01-16T14:10:24;4.10;92.20
13992;DHT22;7070;53.586;9.692;2024-01-16T14:12:51;4.10;92.10
13992;DHT22;7070;53.586;9.692;2024-01-16T14:15:20;4.10;92.20
13992;DHT22;7070;53.586;9.692;2024-01-16T14:17:50;4.10;92.20
13992;DHT22;7070;53.586;9.692;2024-01-16T14:20:18;4.00;92.20
13992;DHT22;7070;53.586;9.692;2024-01-16T14:22:48;4.00;92.20
13992;DHT22;7070;53.586;9.692;2024-01-16T14:25:15;4.00;92.00
13992;DHT22;7070;53.586;9.692;2024-01-16T14:27:45;4.00;92.00
13992;DHT22;7070;53.586;9.692;2024-01-16T14:30:13;4.00;92.10
13992;DHT22;7070;53.586;9.692;2024-01-16T14:32:43;3.90;92.10
13992;DHT22;7070;53.586;9.692;2024-01-16T14:35:12;3.90;92.20
13992;DHT22;7070;53.586;9.692;2024-01-16T14:37:39;3.80;92.10
13992;DHT22;7070;53.586;9.692;2024-01-16T14:40:07;3.90;92.10
13992;DHT22;7070;53.586;9.692;2024-01-16T14:42:38;3.80;92.10
13992;DHT22;7070;53.586;9.692;2024-01-16T14:45:06;3.80;92.10
13992;DHT22;7070;53.586;9.692;2024-01-16T14:47:33;3.70;92.00
13992;DHT22;7070;53.586;9.692;2024-01-16T14:50:01;3.70;92.00
13992;DHT22;7070;53.586;9.692;2024-01-16T14:52:29;3.70;92.00
13992;DHT22;7070;53.586;9.692;2024-01-16T14:54:57;3.60;92.00
13992;DHT22;7070;53.586;9.692;2024-01-16T14:57:24;3.60;92.00
13992;DHT22;7070;53.586;9.692;2024-01-16T14:59:52;3.60;92.40
13992;DHT22;7070;53.586;9.692;2024-01-16T15:02:19;3.50;92.40
13992;DHT22;7070;53.586;9.692;2024-01-16T15:04:46;3.50;92.10
13992;DHT22;7070;53.586;9.692;2024-01-16T15:07:15;3.50;92.10
13992;DHT22;7070;53.586;9.692;2024-01-16T15:09:42;3.50;92.20
13992;DHT22;7070;53.586;9.692;2024-01-16T15:12:09;3.40;92.10
13992;DHT22;7070;53.586;9.692;2024-01-16T15:14:36;3.40;92.10
13992;DHT22;7070;53.586;9.692;2024-01-16T15:17:03;3.50;92.20
13992;DHT22;7070;53.586;9.692;2024-01-16T15:19:30;3.50;92.20
13992;DHT22;7070;53.586;9.692;2024-01-16T15:21:57;3.50;92.20
13992;DHT22;7070;53.586;9.692;2024-01-16T15:24:25;3.40;92.40
13992;DHT22;7070;53.586;9.692;2024-01-16T15:26:54;3.40;92.10
13992;DHT22;7070;53.586;9.692;2024-01-16T15:29:21;3.30;92.00
13992;DHT22;7070;53.586;9.692;2024-01-16T15:31:48;3.30;92.00
13992;DHT22;7070;53.586;9.692;2024-01-16T15:34:15;3.30;92.00
13992;DHT22;7070;53.586;9.692;2024-01-16T15:36:42;3.30;92.00
13992;DHT22;7070;53.586;9.692;2024-01-16T15:39:09;3.30;92.10
13992;DHT22;7070;53.586;9.692;2024-01-16T15:41:37;3.20;92.10
13992;DHT22;7070;53.586;9.692;2024-01-16T15:44:05;3.20;92.10
13992;DHT22;7070;53.586;9.692;2024-01-16T15:46:32;3.20;92.20
13992;DHT22;7070;53.586;9.692;2024-01-16T15:48:59;3.20;92.20
13992;DHT22;7070;53.586;9.692;2024-01-16T15:51:26;3.10;92.20
13992;DHT22;7070;53.586;9.692;2024-01-16T15:53:53;3.20;92.50
13992;DHT22;7070;53.586;9.692;2024-01-16T15:56:20;3.20;92.20
13992;DHT22;7070;53.586;9.692;2024-01-16T15:58:48;3.10;92.20
13992;DHT22;7070;53.586;9.692;2024-01-16T16:01:15;3.20;92.20
13992;DHT22;7070;53.586;9.692;2024-01-16T16:03:42;3.20;92.20
13992;DHT22;7070;53.586;9.692;2024-01-16T16:06:10;3.10;92.10